createdAt,value
2023-05-22T00:00:13.553Z,63.97
2023-05-22T00:02:43.067Z,64.18
2023-05-22T00:05:11.760Z,64.30
2023-05-22T00:07:39.319Z,64.15
2023-05-22T00:10:06.701Z,64.28
2023-05-22T00:12:33.280Z,64.74
2023-05-22T00:15:00.230Z,64.40
2023-05-22T00:17:27.122Z,64.35
2023-05-22T00:19:55.160Z,64.47
2023-05-22T00:22:21.863Z,64.32
2023-05-22T00:24:48.365Z,64.25
2023-05-22T00:27:14.831Z,64.40
2023-05-22T00:29:41.405Z,64.72
2023-05-22T00:32:07.917Z,64.33
2023-05-22T00:34:34.493Z,63.78
2023-05-22T00:37:01.068Z,63.66
2023-05-22T00:39:27.535Z,63.61
2023-05-22T00:41:53.990Z,63.21
2023-05-22T00:44:20.479Z,63.17
2023-05-22T00:46:46.982Z,63.51
2023-05-22T00:49:13.480Z,63.24
2023-05-22T00:51:40.086Z,62.96
2023-05-22T00:54:06.696Z,63.55
2023-05-22T00:56:33.677Z,63.37
2023-05-22T00:59:00.403Z,63.16
2023-05-22T01:01:33.452Z,62.77
2023-05-22T01:04:02.032Z,63.05
2023-05-22T01:06:28.800Z,63.14
2023-05-22T01:08:55.315Z,63.28
2023-05-22T01:11:26.476Z,63.20
2023-05-22T01:14:20.939Z,63.87
2023-05-22T01:16:54.551Z,63.44
2023-05-22T01:19:43.698Z,63.71
2023-05-22T01:22:30.226Z,63.20
2023-05-22T01:25:35.402Z,63.25
2023-05-22T01:28:22.214Z,63.02
2023-05-22T01:31:02.259Z,63.27
2023-05-22T01:33:32.324Z,63.23
2023-05-22T01:36:01.355Z,63.46
2023-05-22T01:38:28.039Z,63.17
2023-05-22T01:40:55.185Z,63.46
2023-05-22T01:43:21.656Z,62.88
2023-05-22T01:45:48.326Z,62.50
2023-05-22T01:48:14.849Z,62.42
2023-05-22T01:50:41.809Z,62.59
2023-05-22T01:53:16.797Z,62.91
2023-05-22T01:55:50.444Z,62.96
2023-05-22T01:58:45.571Z,63.09
2023-05-22T02:01:13.357Z,64.13
2023-05-22T02:03:40.329Z,63.86
2023-05-22T02:06:09.291Z,63.17
2023-05-22T02:08:37.614Z,63.39
2023-05-22T02:11:05.290Z,63.39
2023-05-22T02:13:31.801Z,63.27
2023-05-22T02:15:58.505Z,63.65
2023-05-22T02:18:31.500Z,63.56
2023-05-22T02:20:58.372Z,63.92
2023-05-22T02:23:25.622Z,63.98
2023-05-22T02:25:52.273Z,64.50
2023-05-22T02:28:18.733Z,63.49
2023-05-22T02:30:45.266Z,63.76
2023-05-22T02:33:11.826Z,64.88
2023-05-22T02:35:38.484Z,65.80
2023-05-22T02:38:04.949Z,64.41
2023-05-22T02:40:34.016Z,64.51
2023-05-22T02:43:00.585Z,64.32
2023-05-22T02:45:27.090Z,63.86
2023-05-22T02:47:54.048Z,63.99
2023-05-22T02:50:20.547Z,65.36
2023-05-22T02:52:47.635Z,64.15
2023-05-22T02:55:14.103Z,63.82
2023-05-22T02:57:40.737Z,64.56
2023-05-22T03:00:10.650Z,64.01
2023-05-22T03:02:38.879Z,65.41
2023-05-22T03:05:06.217Z,64.19
2023-05-22T03:07:32.722Z,65.00
2023-05-22T03:09:59.357Z,64.55
2023-05-22T03:12:25.958Z,64.05
2023-05-22T03:14:52.404Z,63.54
2023-05-22T03:17:18.920Z,63.24
2023-05-22T03:19:45.392Z,62.75
2023-05-22T03:22:11.927Z,63.06
2023-05-22T03:24:38.376Z,62.23
2023-05-22T03:27:05.425Z,62.26
2023-05-22T03:29:31.993Z,61.96
2023-05-22T03:31:58.956Z,62.49
2023-05-22T03:34:27.083Z,62.69
2023-05-22T03:36:54.096Z,62.99
2023-05-22T03:39:20.689Z,63.33
2023-05-22T03:41:47.272Z,62.58
2023-05-22T03:44:13.764Z,62.98
2023-05-22T03:46:40.311Z,63.66
2023-05-22T03:49:06.814Z,63.19
2023-05-22T03:51:33.318Z,63.39
2023-05-22T03:53:59.843Z,62.77
2023-05-22T03:56:27.057Z,62.62
2023-05-22T03:58:53.611Z,62.74
2023-05-22T04:01:20.828Z,62.86
2023-05-22T04:03:47.672Z,62.71
2023-05-22T04:06:14.654Z,62.63
2023-05-22T04:08:41.149Z,62.68
2023-05-22T04:11:08.276Z,62.44
2023-05-22T04:13:35.799Z,63.34
2023-05-22T04:16:04.198Z,63.34
2023-05-22T04:18:33.806Z,64.09
2023-05-22T04:21:00.819Z,63.45
2023-05-22T04:23:27.311Z,64.24
2023-05-22T04:25:53.826Z,63.35
2023-05-22T04:28:23.297Z,62.62
2023-05-22T04:30:50.174Z,62.99
2023-05-22T04:33:18.096Z,63.21
2023-05-22T04:35:44.713Z,62.77
2023-05-22T04:38:11.259Z,62.25
2023-05-22T04:40:38.209Z,62.06
2023-05-22T04:43:05.061Z,61.55
2023-05-22T04:45:32.837Z,61.20
2023-05-22T04:48:02.392Z,60.89
2023-05-22T04:50:32.655Z,60.70
2023-05-22T04:52:59.899Z,61.07
2023-05-22T04:55:29.546Z,60.28
2023-05-22T04:57:56.418Z,60.43
2023-05-22T05:00:26.399Z,60.51
2023-05-22T05:02:53.495Z,60.33
2023-05-22T05:05:20.289Z,59.79
2023-05-22T05:07:50.108Z,60.40
2023-05-22T05:10:17.132Z,59.51
2023-05-22T05:12:43.808Z,59.70
2023-05-22T05:15:10.831Z,60.28
2023-05-22T05:17:38.396Z,59.44
2023-05-22T05:20:07.314Z,58.69
2023-05-22T05:22:34.062Z,58.66
2023-05-22T05:25:01.189Z,58.42
2023-05-22T05:27:27.856Z,58.19
2023-05-22T05:29:54.676Z,57.79
2023-05-22T05:32:21.237Z,59.07
2023-05-22T05:34:47.836Z,58.54
2023-05-22T05:37:14.327Z,58.60
2023-05-22T05:39:40.843Z,59.15
2023-05-22T05:42:07.435Z,58.30
2023-05-22T05:44:34.009Z,58.02
2023-05-22T05:47:01.053Z,58.05
2023-05-22T05:49:27.670Z,57.89
2023-05-22T05:51:54.182Z,57.77
2023-05-22T05:54:21.277Z,57.25
2023-05-22T05:56:48.155Z,57.22
2023-05-22T05:59:14.756Z,57.40
2023-05-22T06:01:45.816Z,57.58
2023-05-22T06:04:13.285Z,58.98
2023-05-22T06:06:40.139Z,58.88
2023-05-22T06:09:06.725Z,58.72
2023-05-22T06:11:33.608Z,58.63
2023-05-22T06:14:04.792Z,57.60
2023-05-22T06:16:31.816Z,57.99
2023-05-22T06:18:59.142Z,57.57
2023-05-22T06:21:26.107Z,57.31
2023-05-22T06:23:52.773Z,57.24
2023-05-22T06:26:19.384Z,55.74
2023-05-22T06:28:45.880Z,55.65
2023-05-22T06:31:12.496Z,55.50
2023-05-22T06:33:40.735Z,54.04
2023-05-22T06:36:08.824Z,54.24
2023-05-22T06:38:35.452Z,54.35
2023-05-22T06:41:02.019Z,54.63
2023-05-22T06:43:28.519Z,55.26
2023-05-22T06:45:55.075Z,56.35
2023-05-22T06:48:22.042Z,54.36
2023-05-22T06:50:48.548Z,54.42
2023-05-22T06:53:15.016Z,53.82
2023-05-22T06:55:42.447Z,53.27
2023-05-22T06:58:09.378Z,54.85
2023-05-22T07:00:39.146Z,54.39
2023-05-22T07:03:06.884Z,53.41
2023-05-22T07:05:33.584Z,53.77
2023-05-22T07:08:00.226Z,54.42
2023-05-22T07:10:27.710Z,52.77
2023-05-22T07:12:54.655Z,52.77
2023-05-22T07:15:21.398Z,54.13
2023-05-22T07:17:49.449Z,54.61
2023-05-22T07:20:17.677Z,56.26
2023-05-22T07:22:44.232Z,57.90
2023-05-22T07:25:10.870Z,56.64
2023-05-22T07:27:37.715Z,59.09
2023-05-22T07:30:04.639Z,59.38
2023-05-22T07:32:31.281Z,58.86
2023-05-22T07:34:57.953Z,59.19
2023-05-22T07:37:24.655Z,55.53
2023-05-22T07:39:51.179Z,54.86
2023-05-22T07:42:17.738Z,54.63
2023-05-22T07:44:44.229Z,54.32
2023-05-22T07:47:10.799Z,53.79
2023-05-22T07:49:37.297Z,52.47
2023-05-22T07:52:03.976Z,52.83
2023-05-22T07:54:30.563Z,52.54
2023-05-22T07:56:57.449Z,54.55
2023-05-22T07:59:25.294Z,53.10
2023-05-22T08:01:52.006Z,50.86
2023-05-22T08:04:18.778Z,52.50
2023-05-22T08:06:45.391Z,54.57
2023-05-22T08:09:12.025Z,58.54
2023-05-22T08:11:42.031Z,55.97
2023-05-22T08:14:08.964Z,57.00
2023-05-22T08:16:35.560Z,58.17
2023-05-22T08:19:02.521Z,58.39
2023-05-22T08:21:29.287Z,58.11
2023-05-22T08:23:56.060Z,53.52
2023-05-22T08:26:23.166Z,51.05
2023-05-22T08:28:49.680Z,50.01
2023-05-22T08:31:16.302Z,48.73
2023-05-22T08:33:43.130Z,52.40
2023-05-22T08:36:09.808Z,50.87
2023-05-22T08:38:37.173Z,51.45
2023-05-22T08:41:05.171Z,49.21
2023-05-22T08:43:32.011Z,49.86
2023-05-22T08:46:09.283Z,48.11
2023-05-22T08:48:37.254Z,47.75
2023-05-22T08:51:05.777Z,49.45
2023-05-22T08:53:38.790Z,48.23
2023-05-22T08:56:06.885Z,48.02
2023-05-22T08:58:35.148Z,45.84
2023-05-22T09:01:02.118Z,44.51
2023-05-22T09:03:32.906Z,43.26
2023-05-22T09:05:59.924Z,43.71
2023-05-22T09:08:27.413Z,45.60
2023-05-22T09:10:57.579Z,44.62
2023-05-22T09:13:27.223Z,43.67
2023-05-22T09:15:58.377Z,39.45
2023-05-22T09:18:27.396Z,36.12
2023-05-22T09:20:53.906Z,35.37
2023-05-22T09:23:22.135Z,37.07
2023-05-22T09:25:48.729Z,34.22
2023-05-22T09:28:15.229Z,35.84
2023-05-22T09:30:42.653Z,35.01
2023-05-22T09:33:12.915Z,32.44
2023-05-22T09:35:39.781Z,30.76
2023-05-22T09:38:06.516Z,31.37
2023-05-22T09:40:34.933Z,32.02
2023-05-22T09:43:02.532Z,29.83
2023-05-22T09:45:29.017Z,31.29
2023-05-22T09:47:55.647Z,28.30
2023-05-22T09:50:22.316Z,31.77
2023-05-22T09:52:50.732Z,27.53
2023-05-22T09:55:19.084Z,23.36
2023-05-22T09:57:46.355Z,25.00
2023-05-22T10:00:18.330Z,22.22
2023-05-22T10:02:46.959Z,21.83
2023-05-22T10:05:23.503Z,20.58
2023-05-22T10:07:52.105Z,19.99
2023-05-22T10:10:21.980Z,19.95
2023-05-22T10:12:52.772Z,23.66
2023-05-22T10:15:19.875Z,27.78
2023-05-22T10:17:47.860Z,25.38
2023-05-22T10:20:15.987Z,25.86
2023-05-22T10:22:44.517Z,19.63
2023-05-22T10:25:11.627Z,16.84
2023-05-22T10:27:39.362Z,21.36
2023-05-22T10:30:36.348Z,24.47
2023-05-22T10:33:21.891Z,21.50
2023-05-22T10:36:10.527Z,26.19
2023-05-22T10:38:55.917Z,24.02
2023-05-22T10:41:23.134Z,20.80
2023-05-22T10:43:50.744Z,23.46
2023-05-22T10:46:17.945Z,22.59
2023-05-22T10:48:46.297Z,25.63
2023-05-22T10:51:15.541Z,22.56
2023-05-22T10:53:45.401Z,23.07
2023-05-22T10:56:13.282Z,20.98
2023-05-22T10:58:42.575Z,18.29
2023-05-22T11:01:16.901Z,16.60
2023-05-22T11:03:56.677Z,15.17
2023-05-22T11:06:37.700Z,14.83
2023-05-22T11:09:26.169Z,13.62
2023-05-22T11:12:13.348Z,16.23
2023-05-22T11:14:39.952Z,17.31
2023-05-22T11:17:06.845Z,17.57
2023-05-22T11:19:33.602Z,18.63
2023-05-22T11:22:01.353Z,18.95
2023-05-22T11:24:33.131Z,18.06
2023-05-22T11:27:05.964Z,18.88
2023-05-22T11:29:32.865Z,21.42
2023-05-22T11:31:59.821Z,20.35
2023-05-22T11:34:26.371Z,16.75
2023-05-22T11:36:53.295Z,16.45
2023-05-22T11:39:19.789Z,15.17
2023-05-22T11:41:46.286Z,15.20
2023-05-22T11:44:12.741Z,14.10
2023-05-22T11:46:39.853Z,14.34
2023-05-22T11:49:09.253Z,17.54
2023-05-22T11:51:38.845Z,17.22
2023-05-22T11:54:05.466Z,15.13
2023-05-22T11:56:31.999Z,14.29
2023-05-22T11:58:58.900Z,15.86
2023-05-22T12:01:25.463Z,15.92
2023-05-22T12:03:52.044Z,14.72
2023-05-22T12:06:18.717Z,15.98
2023-05-22T12:08:45.417Z,16.12
2023-05-22T12:11:12.601Z,16.78
2023-05-22T12:13:39.275Z,18.75
2023-05-22T12:16:18.652Z,20.45
2023-05-22T12:18:45.310Z,22.96
2023-05-22T12:21:11.843Z,25.45
2023-05-22T12:23:47.687Z,26.19
2023-05-22T12:26:14.199Z,26.25
2023-05-22T12:28:40.730Z,27.37
2023-05-22T12:31:07.284Z,27.82
2023-05-22T12:33:33.904Z,27.67
2023-05-22T12:36:00.496Z,28.03
2023-05-22T12:38:28.337Z,29.94
2023-05-22T12:40:55.630Z,32.68
2023-05-22T12:43:25.503Z,31.63
2023-05-22T12:45:52.523Z,31.13
2023-05-22T12:48:19.758Z,29.90
2023-05-22T12:50:46.804Z,29.82
2023-05-22T12:53:13.434Z,29.39
2023-05-22T12:55:40.069Z,29.25
2023-05-22T12:58:06.842Z,29.00
2023-05-22T13:00:34.820Z,29.55
2023-05-22T13:03:01.701Z,29.78
2023-05-22T13:05:29.807Z,30.86
2023-05-22T13:07:56.736Z,30.40
2023-05-22T13:10:23.237Z,30.46
2023-05-22T13:12:51.463Z,30.31
2023-05-22T13:15:18.660Z,29.93
2023-05-22T13:17:45.718Z,28.59
2023-05-22T13:20:12.972Z,28.65
2023-05-22T13:22:40.351Z,29.37
2023-05-22T13:25:07.160Z,29.03
2023-05-22T13:27:34.025Z,29.42
2023-05-22T13:30:00.695Z,29.13
2023-05-22T13:32:27.278Z,29.63
2023-05-22T13:34:53.793Z,30.03
2023-05-22T13:37:20.663Z,30.47
2023-05-22T13:39:50.125Z,31.12
2023-05-22T13:42:16.691Z,32.39
2023-05-22T13:44:46.164Z,31.50
2023-05-22T13:47:12.884Z,31.78
2023-05-22T13:49:39.558Z,30.86
2023-05-22T13:52:06.102Z,31.45
2023-05-22T13:54:32.609Z,31.06
2023-05-22T13:56:59.970Z,30.31
2023-05-22T13:59:27.168Z,31.05
2023-05-22T14:01:53.669Z,31.54
2023-05-22T14:04:20.266Z,32.74
2023-05-22T14:06:46.844Z,33.22
2023-05-22T14:09:13.375Z,34.17
2023-05-22T14:11:39.836Z,33.63
2023-05-22T14:14:07.773Z,33.06
2023-05-22T14:16:34.403Z,34.02
2023-05-22T14:19:01.457Z,34.67
2023-05-22T14:21:28.191Z,34.51
2023-05-22T14:23:54.709Z,33.36
2023-05-22T14:26:21.547Z,35.99
2023-05-22T14:28:48.319Z,35.22
2023-05-22T14:31:14.848Z,35.20
2023-05-22T14:33:41.344Z,34.25
2023-05-22T14:36:07.961Z,32.59
2023-05-22T14:38:34.671Z,32.16
2023-05-22T14:41:01.670Z,33.77
2023-05-22T14:43:28.298Z,32.68
2023-05-22T14:45:56.460Z,33.15
2023-05-22T14:48:26.209Z,35.76
2023-05-22T14:50:55.867Z,36.27
2023-05-22T14:53:22.816Z,36.58
2023-05-22T14:55:49.354Z,37.40
2023-05-22T14:58:15.859Z,36.74
2023-05-22T15:00:42.811Z,37.13
2023-05-22T15:03:09.434Z,40.13
2023-05-22T15:05:36.112Z,43.78
2023-05-22T15:08:02.687Z,56.97
2023-05-22T15:10:29.214Z,60.85
2023-05-22T15:12:55.771Z,68.58
2023-05-22T15:15:24.828Z,70.71
2023-05-22T15:17:51.423Z,75.61
2023-05-22T15:20:18.090Z,77.80
2023-05-22T15:22:44.652Z,76.18
2023-05-22T15:25:14.853Z,75.83
2023-05-22T15:27:42.371Z,75.12
2023-05-22T15:30:10.052Z,74.69
2023-05-22T15:32:37.352Z,73.57
2023-05-22T15:35:05.594Z,72.97
2023-05-22T15:37:33.664Z,71.73
2023-05-22T15:40:06.782Z,72.30
2023-05-22T15:42:33.268Z,71.85
2023-05-22T15:45:00.240Z,71.61
2023-05-22T15:47:28.858Z,73.01
2023-05-22T15:49:55.832Z,72.13
2023-05-22T15:52:24.468Z,72.79
2023-05-22T15:54:51.154Z,71.88
2023-05-22T15:57:17.689Z,71.09
2023-05-22T15:59:47.011Z,70.42
2023-05-22T16:02:14.146Z,69.24
2023-05-22T16:04:40.697Z,71.31
2023-05-22T16:07:07.604Z,70.51
2023-05-22T16:09:35.283Z,70.71
2023-05-22T16:12:02.677Z,70.43
2023-05-22T16:14:29.429Z,69.42
2023-05-22T16:16:56.497Z,68.87
2023-05-22T16:19:23.394Z,67.03
2023-05-22T16:21:49.959Z,66.24
2023-05-22T16:24:16.453Z,66.29
2023-05-22T16:26:43.454Z,66.52
2023-05-22T16:29:09.959Z,64.85
2023-05-22T16:31:36.565Z,64.21
2023-05-22T16:34:04.142Z,63.37
2023-05-22T16:36:31.108Z,64.55
2023-05-22T16:38:57.677Z,66.97
2023-05-22T16:41:24.225Z,66.01
2023-05-22T16:43:50.809Z,65.09
2023-05-22T16:46:18.311Z,64.84
2023-05-22T16:48:45.837Z,64.40
2023-05-22T16:51:12.375Z,65.66
2023-05-22T16:53:40.646Z,72.60
2023-05-22T16:56:07.384Z,73.23
2023-05-22T16:58:34.027Z,72.51
2023-05-22T17:01:08.708Z,73.40
2023-05-22T17:03:38.189Z,73.44
2023-05-22T17:06:05.173Z,73.41
2023-05-22T17:08:32.180Z,74.79
2023-05-22T17:10:58.814Z,74.82
2023-05-22T17:13:25.426Z,73.72
2023-05-22T17:15:52.017Z,73.32
2023-05-22T17:18:22.399Z,73.67
2023-05-22T17:20:50.116Z,72.89
2023-05-22T17:23:17.587Z,73.40
2023-05-22T17:25:46.613Z,75.16
2023-05-22T17:28:14.326Z,74.72
2023-05-22T17:30:42.316Z,73.75
2023-05-22T17:33:09.208Z,76.69
2023-05-22T17:35:35.823Z,77.23
2023-05-22T17:38:02.338Z,76.12
2023-05-22T17:40:40.511Z,75.43
2023-05-22T17:43:11.255Z,75.70
2023-05-22T17:45:37.995Z,76.17
2023-05-22T17:48:06.490Z,75.87
2023-05-22T17:50:32.982Z,74.95
2023-05-22T17:52:59.482Z,73.90
2023-05-22T17:55:26.038Z,74.67
2023-05-22T17:57:52.676Z,74.76
2023-05-22T18:00:19.578Z,74.32
2023-05-22T18:02:47.581Z,74.94
2023-05-22T18:05:15.532Z,75.59
2023-05-22T18:07:42.109Z,74.13
2023-05-22T18:10:09.015Z,74.88
2023-05-22T18:12:37.984Z,73.66
2023-05-22T18:15:05.344Z,71.91
2023-05-22T18:17:32.450Z,71.11
2023-05-22T18:19:59.209Z,70.77
2023-05-22T18:22:25.660Z,70.45
2023-05-22T18:24:52.201Z,69.60
2023-05-22T18:27:18.700Z,69.17
2023-05-22T18:29:45.169Z,69.02
2023-05-22T18:32:13.559Z,69.69
2023-05-22T18:34:41.020Z,69.62
2023-05-22T18:37:07.558Z,71.47
2023-05-22T18:39:34.031Z,73.02
2023-05-22T18:42:00.624Z,73.98
2023-05-22T18:44:27.114Z,74.32
2023-05-22T18:46:54.198Z,74.94
2023-05-22T18:49:20.912Z,73.42
2023-05-22T18:51:47.480Z,72.67
2023-05-22T18:54:13.973Z,72.98
2023-05-22T18:56:40.618Z,74.32
2023-05-22T18:59:09.918Z,73.48
2023-05-22T19:01:36.538Z,73.79
2023-05-22T19:04:03.172Z,73.71
2023-05-22T19:06:30.498Z,73.31
2023-05-22T19:08:57.121Z,74.95
2023-05-22T19:11:23.687Z,76.32
2023-05-22T19:13:53.672Z,76.00
2023-05-22T19:16:20.430Z,77.13
2023-05-22T19:18:47.031Z,75.85
2023-05-22T19:21:13.606Z,75.60
2023-05-22T19:23:40.270Z,75.00
2023-05-22T19:26:06.819Z,73.64
2023-05-22T19:28:33.389Z,74.46
2023-05-22T19:31:03.073Z,74.39
2023-05-22T19:33:31.187Z,74.93
2023-05-22T19:35:58.802Z,75.33
2023-05-22T19:38:25.576Z,73.39
2023-05-22T19:40:52.101Z,75.06
2023-05-22T19:43:18.749Z,74.88
2023-05-22T19:45:45.649Z,74.00
2023-05-22T19:48:13.140Z,74.08
2023-05-22T19:50:41.196Z,75.07
2023-05-22T19:53:07.934Z,74.62
2023-05-22T19:55:34.406Z,75.27
2023-05-22T19:58:00.870Z,73.08
2023-05-22T20:00:31.387Z,73.27
2023-05-22T20:02:58.082Z,72.81
2023-05-22T20:05:25.878Z,73.34
2023-05-22T20:07:52.392Z,72.33
2023-05-22T20:10:18.969Z,73.04
2023-05-22T20:12:45.895Z,72.71
2023-05-22T20:15:14.831Z,71.96
2023-05-22T20:17:42.496Z,72.14
2023-05-22T20:20:13.498Z,72.61
2023-05-22T20:22:40.049Z,72.32
2023-05-22T20:25:07.147Z,72.66
2023-05-22T20:27:33.704Z,71.07
2023-05-22T20:30:00.496Z,70.26
2023-05-22T20:32:27.366Z,71.37
2023-05-22T20:34:55.316Z,70.99
2023-05-22T20:37:22.318Z,70.73
2023-05-22T20:39:50.206Z,69.66
2023-05-22T20:42:17.481Z,70.98
2023-05-22T20:44:44.125Z,71.51
2023-05-22T20:47:13.367Z,70.24
2023-05-22T20:49:40.418Z,70.23
2023-05-22T20:52:06.941Z,71.41
2023-05-22T20:54:34.626Z,70.95
2023-05-22T20:57:01.722Z,70.81
2023-05-22T20:59:29.023Z,71.01
2023-05-22T21:01:56.888Z,71.02
2023-05-22T21:04:23.928Z,71.72
2023-05-22T21:06:50.998Z,71.08
2023-05-22T21:09:17.557Z,69.95
2023-05-22T21:11:44.071Z,69.36
2023-05-22T21:14:10.648Z,69.17
2023-05-22T21:16:39.496Z,68.47
2023-05-22T21:19:07.477Z,68.43
2023-05-22T21:21:35.663Z,68.25
2023-05-22T21:24:02.234Z,67.49
2023-05-22T21:26:28.727Z,67.72
2023-05-22T21:28:55.332Z,67.11
2023-05-22T21:31:22.015Z,66.81
2023-05-22T21:33:54.333Z,67.34
2023-05-22T21:36:20.798Z,67.34
2023-05-22T21:38:51.584Z,66.40
2023-05-22T21:41:18.063Z,66.96
2023-05-22T21:43:47.230Z,67.18
2023-05-22T21:46:13.773Z,67.76
2023-05-22T21:48:40.482Z,67.34
2023-05-22T21:51:07.062Z,66.97
2023-05-22T21:53:33.591Z,67.23
2023-05-22T21:56:00.162Z,66.75
2023-05-22T21:58:26.731Z,66.78
2023-05-22T22:00:53.204Z,68.30
2023-05-22T22:03:19.723Z,68.01
2023-05-22T22:05:46.695Z,67.15
2023-05-22T22:08:14.334Z,66.45
2023-05-22T22:10:41.014Z,67.18
2023-05-22T22:13:07.825Z,67.06
2023-05-22T22:15:34.445Z,66.20
2023-05-22T22:18:02.385Z,66.15
2023-05-22T22:20:43.531Z,66.56
2023-05-22T22:23:12.547Z,66.23
2023-05-22T22:25:39.459Z,65.87
2023-05-22T22:28:07.206Z,65.03
2023-05-22T22:30:33.905Z,66.49
2023-05-22T22:33:00.636Z,66.27
2023-05-22T22:35:27.250Z,65.76
2023-05-22T22:37:53.795Z,65.87
2023-05-22T22:40:20.447Z,64.99
2023-05-22T22:42:46.978Z,65.22
2023-05-22T22:45:14.672Z,65.59
2023-05-22T22:47:41.322Z,65.32
2023-05-22T22:50:09.918Z,65.20
2023-05-22T22:52:37.831Z,65.16
2023-05-22T22:55:11.038Z,64.14
2023-05-22T22:57:37.637Z,64.17
2023-05-22T23:00:05.578Z,64.84
2023-05-22T23:02:32.067Z,64.97
2023-05-22T23:04:58.644Z,63.93
2023-05-22T23:07:25.533Z,64.46
2023-05-22T23:09:52.020Z,64.94
2023-05-22T23:12:20.435Z,64.55
2023-05-22T23:14:47.729Z,64.65
2023-05-22T23:17:14.274Z,63.98
2023-05-22T23:19:40.797Z,64.26
2023-05-22T23:22:07.443Z,64.66
2023-05-22T23:24:34.274Z,65.09
2023-05-22T23:27:01.368Z,65.13
2023-05-22T23:29:28.060Z,65.63
2023-05-22T23:31:55.430Z,66.12
2023-05-22T23:34:22.016Z,64.77
2023-05-22T23:36:51.761Z,64.82
2023-05-22T23:39:18.256Z,64.80
2023-05-22T23:41:45.389Z,65.30
2023-05-22T23:44:12.173Z,66.58
2023-05-22T23:46:39.741Z,67.60
2023-05-22T23:49:07.176Z,66.14
2023-05-22T23:51:33.680Z,66.08
2023-05-22T23:54:00.368Z,65.79
2023-05-22T23:56:26.864Z,65.96
2023-05-22T23:58:53.406Z,65.09
